Time;durP1;ratioP1;P1;durP2;ratioP2;P2;SDS_P1;SDS_P2;PMS_P1;PMS_P2;Temp;Humidity;BMP_temperature;BMP_pressure;BME280_temperature;BME280_humidity;BME280_pressure;Samples;Min_cycle;Max_cycle;Signal;HPM_P1;HPM_P2
2023/06/21 00:00:34;;;;;;;5.40;4.90;;;;;;;;;;5112858;28;20048;-60
2023/06/21 00:03:01;;;;;;;7.00;5.85;;;;;;;;;;5111779;28;20416;-61
2023/06/21 00:05:28;;;;;;;6.13;5.53;;;;;;;;;;5112737;28;20181;-61
2023/06/21 00:07:55;;;;;;;5.88;5.38;;;;;;;;;;5111589;28;20059;-60
2023/06/21 00:10:23;;;;;;;6.45;5.68;;;;;;;;;;5107188;28;20055;-61
2023/06/21 00:12:50;;;;;;;6.45;5.00;;;;;;;;;;5111096;28;20078;-60
2023/06/21 00:15:18;;;;;;;5.60;5.00;;;;;;;;;;5113320;28;20066;-61
2023/06/21 00:17:45;;;;;;;6.30;5.70;;;;;;;;;;5102397;28;20054;-60
2023/06/21 00:20:12;;;;;;;5.88;5.30;;;;;;;;;;5091965;28;20055;-60
2023/06/21 00:22:39;;;;;;;5.43;4.93;;;;;;;;;;5092304;28;20055;-60
2023/06/21 00:25:07;;;;;;;7.47;5.50;;;;;;;;;;5087354;28;20049;-61
2023/06/21 00:27:34;;;;;;;5.95;5.40;;;;;;;;;;5107507;28;20071;-60
2023/06/21 00:30:00;;;;;;;5.18;4.68;;;;;;;;;;5112330;28;20059;-60
2023/06/21 00:32:29;;;;;;;6.03;4.97;;;;;;;;;;5111938;28;20146;-60
2023/06/21 00:34:56;;;;;;;6.82;6.00;;;;;;;;;;5112251;28;20043;-61
2023/06/21 00:37:22;;;;;;;6.00;5.40;;;;;;;;;;5110361;28;20113;-60
2023/06/21 00:39:49;;;;;;;5.45;4.90;;;;;;;;;;5090231;28;20393;-61
2023/06/21 00:42:16;;;;;;;6.63;5.60;;;;;;;;;;5104342;28;20043;-61
2023/06/21 00:44:43;;;;;;;5.75;5.18;;;;;;;;;;5112329;28;20055;-60
2023/06/21 00:47:10;;;;;;;6.13;5.53;;;;;;;;;;5123817;28;20047;-61
2023/06/21 00:49:38;;;;;;;5.82;5.25;;;;;;;;;;5132752;28;20353;-60
2023/06/21 00:52:05;;;;;;;6.53;5.88;;;;;;;;;;5132392;28;20050;-60
2023/06/21 00:54:33;;;;;;;6.07;5.53;;;;;;;;;;5132129;28;20076;-60
2023/06/21 00:57:00;;;;;;;5.68;5.18;;;;;;;;;;5129344;28;20077;-61
2023/06/21 00:59:27;;;;;;;6.15;5.55;;;;;;;;;;5132388;28;20062;-60
2023/06/21 01:01:55;;;;;;;6.57;5.97;;;;;;;;;;5132277;28;20043;-61
2023/06/21 01:04:22;;;;;;;5.40;4.88;;;;;;;;;;5132250;28;20055;-61
2023/06/21 01:06:53;;;;;;;5.85;5.32;;;;;;;;;;5132295;28;20062;-61
2023/06/21 01:09:27;;;;;;;6.22;5.10;;;;;;;;;;5132495;28;20058;-61
2023/06/21 01:11:55;;;;;;;6.03;5.43;;;;;;;;;;5117248;28;20078;-61
2023/06/21 01:14:27;;;;;;;6.13;5.40;;;;;;;;;;5115109;28;20062;-61
2023/06/21 01:16:55;;;;;;;7.07;5.45;;;;;;;;;;5115705;28;20075;-61
2023/06/21 01:19:28;;;;;;;5.38;4.88;;;;;;;;;;5115378;28;20058;-61
2023/06/21 01:21:58;;;;;;;6.88;5.20;;;;;;;;;;5115151;28;20047;-60
2023/06/21 01:24:29;;;;;;;5.30;4.65;;;;;;;;;;5115422;28;20052;-61
2023/06/21 01:27:03;;;;;;;7.20;4.95;;;;;;;;;;5117127;27;20078;-61
2023/06/21 01:29:33;;;;;;;5.70;4.85;;;;;;;;;;5115565;28;20051;-60
2023/06/21 01:32:01;;;;;;;4.88;4.38;;;;;;;;;;5115094;28;20047;-60
2023/06/21 01:34:29;;;;;;;4.78;4.38;;;;;;;;;;5115045;28;20345;-60
2023/06/21 01:36:57;;;;;;;5.40;4.90;;;;;;;;;;5115431;28;20051;-60
2023/06/21 01:39:26;;;;;;;5.80;5.05;;;;;;;;;;5114900;27;20058;-60
2023/06/21 01:41:53;;;;;;;5.00;4.53;;;;;;;;;;5113069;28;20147;-61
2023/06/21 01:44:20;;;;;;;5.22;4.72;;;;;;;;;;5114970;28;20118;-60
2023/06/21 01:46:51;;;;;;;5.88;4.53;;;;;;;;;;5115079;28;20419;-60
2023/06/21 01:49:18;;;;;;;5.38;4.43;;;;;;;;;;5128658;27;20117;-60
2023/06/21 01:51:45;;;;;;;4.68;4.25;;;;;;;;;;5135525;27;20051;-60
2023/06/21 01:54:13;;;;;;;5.40;4.18;;;;;;;;;;5132938;27;20058;-60
2023/06/21 01:56:42;;;;;;;5.10;4.10;;;;;;;;;;5116520;27;20051;-60
2023/06/21 01:59:09;;;;;;;;;;;;;;;;;;5115738;28;20055;-60
2023/06/21 02:01:36;;;;;;;5.07;4.43;;;;;;;;;;5115023;28;19919;-60
2023/06/21 02:04:05;;;;;;;4.78;3.70;;;;;;;;;;5114480;28;20412;-60
2023/06/21 02:06:35;;;;;;;4.45;3.90;;;;;;;;;;5115118;28;20412;-61
2023/06/21 02:09:05;;;;;;;;;;;;;;;;;;5115020;28;20051;-60
2023/06/21 02:11:32;;;;;;;6.20;4.30;;;;;;;;;;5118402;27;20307;-61
2023/06/21 02:14:00;;;;;;;4.32;3.63;;;;;;;;;;5113005;28;20058;-60
2023/06/21 02:16:27;;;;;;;4.95;3.90;;;;;;;;;;5114921;28;20051;-61
2023/06/21 02:18:54;;;;;;;4.82;4.10;;;;;;;;;;5111997;27;20063;-61
2023/06/21 02:21:22;;;;;;;4.22;3.58;;;;;;;;;;5113817;28;20411;-60
2023/06/21 02:23:49;;;;;;;5.85;3.78;;;;;;;;;;5114421;28;20056;-60
2023/06/21 02:26:17;;;;;;;4.30;3.90;;;;;;;;;;5117561;27;20511;-61
2023/06/21 02:28:44;;;;;;;5.15;4.20;;;;;;;;;;5114697;28;20066;-60
2023/06/21 02:31:10;;;;;;;4.38;3.97;;;;;;;;;;5114732;28;20062;-60
2023/06/21 02:33:37;;;;;;;5.13;4.10;;;;;;;;;;5114765;28;20052;-60
2023/06/21 02:36:05;;;;;;;4.68;4.07;;;;;;;;;;5114956;28;20048;-60
2023/06/21 02:38:33;;;;;;;4.18;3.78;;;;;;;;;;5114749;28;20048;-60
2023/06/21 02:41:00;;;;;;;5.00;4.22;;;;;;;;;;5117386;27;20051;-60
2023/06/21 02:43:27;;;;;;;4.90;4.40;;;;;;;;;;5114037;28;20052;-60
2023/06/21 02:45:54;;;;;;;4.82;4.07;;;;;;;;;;5114458;28;20062;-60
2023/06/21 02:48:21;;;;;;;5.10;4.60;;;;;;;;;;5119570;27;20502;-60
2023/06/21 02:50:48;;;;;;;5.25;4.75;;;;;;;;;;5135229;27;20054;-60
2023/06/21 02:53:15;;;;;;;6.88;4.15;;;;;;;;;;5135309;27;20047;-61
2023/06/21 02:55:43;;;;;;;5.28;4.35;;;;;;;;;;5127035;27;20051;-60
2023/06/21 02:58:10;;;;;;;4.85;4.13;;;;;;;;;;5114635;28;20086;-59
2023/06/21 03:00:36;;;;;;;5.30;4.80;;;;;;;;;;5114229;28;20062;-60
2023/06/21 03:03:04;;;;;;;5.03;4.45;;;;;;;;;;5114132;28;20050;-60
2023/06/21 03:05:33;;;;;;;4.20;3.80;;;;;;;;;;5114258;28;20047;-59
2023/06/21 03:08:03;;;;;;;5.43;4.75;;;;;;;;;;5113797;28;20052;-59
2023/06/21 03:10:32;;;;;;;5.18;4.30;;;;;;;;;;5116695;27;20438;-60
2023/06/21 03:13:01;;;;;;;4.88;4.38;;;;;;;;;;5113045;28;20614;-60
2023/06/21 03:15:28;;;;;;;6.63;4.73;;;;;;;;;;5114142;28;20155;-60
2023/06/21 03:17:55;;;;;;;5.93;4.70;;;;;;;;;;5113458;28;21004;-60
2023/06/21 03:20:24;;;;;;;5.07;4.40;;;;;;;;;;5113908;28;20051;-59
2023/06/21 03:22:51;;;;;;;4.95;4.10;;;;;;;;;;5113878;28;20510;-60
2023/06/21 03:25:18;;;;;;;5.85;5.05;;;;;;;;;;5114265;27;20051;-60
2023/06/21 03:27:45;;;;;;;5.03;4.45;;;;;;;;;;5114184;27;20419;-60
2023/06/21 03:30:14;;;;;;;5.72;5.13;;;;;;;;;;5113869;28;20043;-60
2023/06/21 03:32:46;;;;;;;5.72;4.72;;;;;;;;;;5111325;27;20476;-59
2023/06/21 03:35:14;;;;;;;5.00;4.50;;;;;;;;;;5109542;28;20051;-60
2023/06/21 03:37:41;;;;;;;4.72;4.22;;;;;;;;;;5113575;28;20055;-59
2023/06/21 03:40:11;;;;;;;5.40;4.82;;;;;;;;;;5113602;28;20054;-59
2023/06/21 03:42:38;;;;;;;5.03;4.50;;;;;;;;;;5113996;27;20534;-60
2023/06/21 03:45:06;;;;;;;6.00;4.93;;;;;;;;;;5113268;28;20055;-59
2023/06/21 03:47:34;;;;;;;4.53;4.13;;;;;;;;;;5113746;28;20408;-59
2023/06/21 03:50:01;;;;;;;6.60;5.35;;;;;;;;;;5132318;27;20059;-60
2023/06/21 03:52:27;;;;;;;5.00;4.50;;;;;;;;;;5133629;27;20051;-60
2023/06/21 03:54:54;;;;;;;6.07;4.63;;;;;;;;;;5133549;27;20058;-59
2023/06/21 03:57:21;;;;;;;6.72;4.95;;;;;;;;;;5115529;27;20051;-59
2023/06/21 03:59:48;;;;;;;6.13;5.03;;;;;;;;;;5113045;28;20392;-59
2023/06/21 04:02:15;;;;;;;5.97;4.30;;;;;;;;;;5112586;28;20058;-59
2023/06/21 04:04:43;;;;;;;6.70;4.50;;;;;;;;;;5112842;28;20048;-61
2023/06/21 04:07:10;;;;;;;5.93;4.72;;;;;;;;;;5113327;28;20055;-58
2023/06/21 04:09:37;;;;;;;6.43;4.45;;;;;;;;;;5112636;28;20051;-59
2023/06/21 04:12:04;;;;;;;7.68;5.10;;;;;;;;;;5112473;28;20058;-60
2023/06/21 04:14:31;;;;;;;6.00;5.32;;;;;;;;;;5112761;28;20052;-61
2023/06/21 04:16:58;;;;;;;7.07;5.43;;;;;;;;;;5112791;28;20056;-61
2023/06/21 04:19:25;;;;;;;5.50;4.97;;;;;;;;;;5112689;28;20051;-61
2023/06/21 04:21:53;;;;;;;8.27;5.82;;;;;;;;;;5112848;28;20056;-60
2023/06/21 04:24:20;;;;;;;6.90;4.72;;;;;;;;;;5113162;28;20066;-60
2023/06/21 04:26:47;;;;;;;5.35;4.50;;;;;;;;;;5115448;28;20056;-59
2023/06/21 04:29:16;;;;;;;6.07;4.75;;;;;;;;;;5112948;28;20485;-60
2023/06/21 04:31:43;;;;;;;5.25;4.70;;;;;;;;;;5113066;28;20059;-60
2023/06/21 04:34:10;;;;;;;6.50;4.72;;;;;;;;;;5112407;28;20059;-60
2023/06/21 04:36:37;;;;;;;6.22;4.95;;;;;;;;;;5111389;28;20063;-60
2023/06/21 04:39:05;;;;;;;7.05;5.50;;;;;;;;;;5112823;28;20488;-60
2023/06/21 04:41:35;;;;;;;5.45;4.90;;;;;;;;;;5115326;28;20058;-60
2023/06/21 04:44:02;;;;;;;6.00;4.35;;;;;;;;;;5112028;28;20043;-61
2023/06/21 04:46:29;;;;;;;4.30;3.88;;;;;;;;;;5112520;28;20056;-60
2023/06/21 04:48:56;;;;;;;6.85;4.75;;;;;;;;;;5115158;28;20122;-60
2023/06/21 04:51:22;;;;;;;7.82;4.22;;;;;;;;;;5117091;28;20055;-60
2023/06/21 04:53:49;;;;;;;6.05;4.70;;;;;;;;;;5116220;28;20047;-60
2023/06/21 04:56:18;;;;;;;6.07;4.38;;;;;;;;;;5116019;28;20389;-60
2023/06/21 04:58:45;;;;;;;6.05;4.65;;;;;;;;;;5116181;28;20051;-61
2023/06/21 05:01:13;;;;;;;6.38;4.38;;;;;;;;;;5116417;28;20059;-61
2023/06/21 05:03:41;;;;;;;5.83;4.20;;;;;;;;;;5116297;28;20052;-59
2023/06/21 05:06:08;;;;;;;5.45;4.35;;;;;;;;;;5116564;28;20052;-62
2023/06/21 05:08:35;;;;;;;5.65;4.82;;;;;;;;;;5116162;28;20051;-59
2023/06/21 05:11:02;;;;;;;5.30;4.65;;;;;;;;;;5116538;28;20412;-60
2023/06/21 05:13:30;;;;;;;5.65;4.57;;;;;;;;;;5117545;27;20048;-59
2023/06/21 05:15:57;;;;;;;4.93;4.18;;;;;;;;;;5116267;28;20055;-59
2023/06/21 05:18:24;;;;;;;6.20;4.30;;;;;;;;;;5115854;28;20052;-60
2023/06/21 05:20:50;;;;;;;5.70;4.80;;;;;;;;;;5116134;28;20052;-59
2023/06/21 05:23:17;;;;;;;7.32;4.70;;;;;;;;;;5115901;28;20480;-60
2023/06/21 05:25:44;;;;;;;5.47;4.57;;;;;;;;;;5116237;28;20062;-60
2023/06/21 05:28:11;;;;;;;5.15;4.22;;;;;;;;;;5117320;27;20589;-59
2023/06/21 05:30:39;;;;;;;5.97;4.80;;;;;;;;;;5115726;28;20055;-59
2023/06/21 05:33:06;;;;;;;4.93;4.22;;;;;;;;;;5115098;28;20052;-60
2023/06/21 05:35:33;;;;;;;6.10;4.47;;;;;;;;;;5111767;27;20070;-60
2023/06/21 05:38:00;;;;;;;5.45;4.53;;;;;;;;;;5108722;27;20471;-60
2023/06/21 05:40:26;;;;;;;6.30;4.47;;;;;;;;;;5112665;27;20054;-60
2023/06/21 05:42:53;;;;;;;7.15;4.70;;;;;;;;;;5099695;28;20044;-60
2023/06/21 05:45:20;;;;;;;6.25;4.20;;;;;;;;;;5090052;28;20051;-60
2023/06/21 05:47:48;;;;;;;5.68;4.47;;;;;;;;;;5092689;28;20048;-60
2023/06/21 05:50:15;;;;;;;6.10;4.43;;;;;;;;;;5082335;28;20055;-60
2023/06/21 05:52:42;;;;;;;5.68;4.78;;;;;;;;;;5086374;28;20654;-60
2023/06/21 05:55:09;;;;;;;6.00;4.90;;;;;;;;;;5089390;28;20048;-60
2023/06/21 05:57:36;;;;;;;7.28;5.10;;;;;;;;;;5086238;28;20055;-60
2023/06/21 06:00:09;;;;;;;5.97;4.20;;;;;;;;;;5090668;28;20056;-60
2023/06/21 06:02:35;;;;;;;5.55;4.85;;;;;;;;;;5090736;28;20056;-60
2023/06/21 06:05:04;;;;;;;6.03;4.57;;;;;;;;;;5090155;28;20052;-60
2023/06/21 06:07:31;;;;;;;7.20;5.10;;;;;;;;;;5087812;28;20056;-60
2023/06/21 06:09:58;;;;;;;6.47;4.57;;;;;;;;;;5094808;28;20389;-60
2023/06/21 06:12:24;;;;;;;5.85;5.15;;;;;;;;;;5099264;28;20048;-59
2023/06/21 06:14:52;;;;;;;5.63;4.78;;;;;;;;;;5092561;28;20051;-61
2023/06/21 06:17:24;;;;;;;5.30;4.45;;;;;;;;;;5092234;28;20059;-60
2023/06/21 06:19:50;;;;;;;7.47;5.30;;;;;;;;;;5093261;28;20059;-61
2023/06/21 06:22:19;;;;;;;5.55;4.68;;;;;;;;;;5091139;28;20048;-61
2023/06/21 06:24:47;;;;;;;6.97;5.38;;;;;;;;;;5090534;28;20055;-60
2023/06/21 06:27:14;;;;;;;7.32;5.38;;;;;;;;;;5107729;28;20396;-60
2023/06/21 06:29:41;;;;;;;9.90;5.20;;;;;;;;;;5109988;28;20055;-61
2023/06/21 06:32:08;;;;;;;6.80;5.00;;;;;;;;;;5114059;28;20056;-61
2023/06/21 06:34:35;;;;;;;6.22;4.78;;;;;;;;;;5103731;28;20157;-60
2023/06/21 06:37:02;;;;;;;6.22;5.20;;;;;;;;;;5105520;28;20055;-61
2023/06/21 06:39:30;;;;;;;5.28;4.78;;;;;;;;;;5109961;28;20051;-61
2023/06/21 06:41:57;;;;;;;5.80;4.87;;;;;;;;;;5105364;28;20059;-61
2023/06/21 06:44:23;;;;;;;5.95;5.10;;;;;;;;;;5108911;28;20472;-60
2023/06/21 06:46:50;;;;;;;6.00;5.07;;;;;;;;;;5114169;28;20074;-62
2023/06/21 06:49:17;;;;;;;6.72;5.10;;;;;;;;;;5100137;28;20050;-60
2023/06/21 06:54:25;;;;;;;11.18;5.40;;;;;;;;;;5103060;28;20051;-60
2023/06/21 06:56:53;;;;;;;6.50;4.65;;;;;;;;;;5095339;28;20059;-60
2023/06/21 06:59:20;;;;;;;5.97;4.90;;;;;;;;;;5113346;28;20047;-60
2023/06/21 07:01:47;;;;;;;5.63;4.88;;;;;;;;;;5113394;28;20052;-60
2023/06/21 07:04:13;;;;;;;6.38;4.68;;;;;;;;;;5113303;28;20051;-62
2023/06/21 07:06:41;;;;;;;7.40;4.57;;;;;;;;;;5108186;28;20056;-62
2023/06/21 07:09:08;;;;;;;6.57;4.57;;;;;;;;;;5102832;28;20048;-62
2023/06/21 07:11:35;;;;;;;6.78;4.97;;;;;;;;;;5077997;28;20052;-62
2023/06/21 07:14:03;;;;;;;6.00;4.88;;;;;;;;;;5082857;28;20048;-61
2023/06/21 07:16:31;;;;;;;5.25;4.10;;;;;;;;;;5106017;28;20056;-62
2023/06/21 07:18:57;;;;;;;5.55;4.57;;;;;;;;;;5091343;28;20412;-62
2023/06/21 07:21:27;;;;;;;6.05;5.45;;;;;;;;;;5082150;28;20048;-62
2023/06/21 07:23:54;;;;;;;7.68;5.60;;;;;;;;;;5083249;28;20047;-62
2023/06/21 07:26:20;;;;;;;6.03;5.30;;;;;;;;;;5084762;28;20737;-62
2023/06/21 07:28:47;;;;;;;5.93;5.38;;;;;;;;;;5087184;28;20048;-61
2023/06/21 07:31:16;;;;;;;7.47;5.82;;;;;;;;;;5083682;28;20047;-62
2023/06/21 07:33:43;;;;;;;7.70;5.80;;;;;;;;;;5084871;28;20405;-62
2023/06/21 07:36:10;;;;;;;6.50;5.80;;;;;;;;;;5093197;28;20055;-62
2023/06/21 07:38:37;;;;;;;6.43;5.82;;;;;;;;;;5083005;28;20047;-62
2023/06/21 07:41:04;;;;;;;7.15;5.68;;;;;;;;;;5090753;28;20056;-62
2023/06/21 07:43:31;;;;;;;6.45;5.75;;;;;;;;;;5090329;28;20404;-62
2023/06/21 07:45:57;;;;;;;7.03;6.43;;;;;;;;;;5095018;28;20059;-62
2023/06/21 07:48:27;;;;;;;7.28;5.63;;;;;;;;;;5094997;28;20497;-61
2023/06/21 07:50:54;;;;;;;6.80;6.10;;;;;;;;;;5074887;28;20056;-62
2023/06/21 07:53:20;;;;;;;6.78;6.07;;;;;;;;;;5079766;28;20044;-62
2023/06/21 07:55:47;;;;;;;7.55;6.70;;;;;;;;;;5084186;28;20056;-62
2023/06/21 07:58:16;;;;;;;7.00;6.28;;;;;;;;;;5083641;28;20063;-61
2023/06/21 08:17:06;;;;;;;9.32;8.43;;;;;;;;;;5053528;28;20039;-60
2023/06/21 08:19:32;;;;;;;11.25;9.65;;;;;;;;;;5071726;28;20384;-60
2023/06/21 08:24:46;;;;;;;11.63;10.63;;;;;;;;;;5074407;28;20524;-60
2023/06/21 08:27:14;;;;;;;9.80;9.00;;;;;;;;;;5082874;28;20060;-61
2023/06/21 08:29:40;;;;;;;10.45;9.23;;;;;;;;;;5082612;28;20056;-61
2023/06/21 08:32:09;;;;;;;10.38;9.38;;;;;;;;;;5079144;28;20048;-61
2023/06/21 08:34:36;;;;;;;10.57;9.57;;;;;;;;;;5081353;28;20080;-60
2023/06/21 08:37:02;;;;;;;9.52;8.63;;;;;;;;;;5078719;28;20051;-60
2023/06/21 08:39:29;;;;;;;9.30;8.30;;;;;;;;;;5076851;28;20057;-62
2023/06/21 08:41:56;;;;;;;7.72;6.93;;;;;;;;;;5081638;28;20060;-62
2023/06/21 08:44:23;;;;;;;8.65;7.75;;;;;;;;;;5082119;28;20044;-61
2023/06/21 08:46:50;;;;;;;7.47;6.78;;;;;;;;;;5080544;28;20056;-60
2023/06/21 08:49:41;;;;;;;8.02;6.85;;;;;;;;;;5080426;28;20059;-62
2023/06/21 08:52:10;;;;;;;7.95;7.25;;;;;;;;;;5073373;28;20397;-62
2023/06/21 08:54:39;;;;;;;8.80;7.05;;;;;;;;;;5080703;28;20063;-63
2023/06/21 08:57:08;;;;;;;7.65;6.22;;;;;;;;;;5081821;28;20051;-61
2023/06/21 08:59:36;;;;;;;7.82;6.70;;;;;;;;;;5075668;28;20049;-61
2023/06/21 09:02:10;;;;;;;7.25;6.53;;;;;;;;;;5079531;28;20049;-61
2023/06/21 09:04:40;;;;;;;7.30;6.60;;;;;;;;;;5078879;28;20052;-62
2023/06/21 09:07:07;;;;;;;6.78;6.18;;;;;;;;;;5081577;28;20496;-61
2023/06/21 09:09:37;;;;;;;7.80;7.00;;;;;;;;;;5076269;28;20412;-61
2023/06/21 09:12:04;;;;;;;8.63;6.60;;;;;;;;;;5078564;28;20400;-62
2023/06/21 09:14:32;;;;;;;8.25;6.60;;;;;;;;;;5079218;28;20081;-60
2023/06/21 09:17:00;;;;;;;7.13;6.53;;;;;;;;;;5083639;28;20063;-61
2023/06/21 09:19:27;;;;;;;7.30;6.70;;;;;;;;;;5084163;28;20056;-61
2023/06/21 09:21:54;;;;;;;7.07;6.47;;;;;;;;;;5082562;28;20052;-62
2023/06/21 09:24:21;;;;;;;6.93;6.32;;;;;;;;;;5080807;28;20043;-62
2023/06/21 09:26:49;;;;;;;7.32;6.63;;;;;;;;;;5083170;28;20474;-62
2023/06/21 09:29:16;;;;;;;;;;;;;;;;;;5084812;28;20135;-63
2023/06/21 09:31:43;;;;;;;8.25;6.13;;;;;;;;;;5083226;28;20287;-62
2023/06/21 09:34:10;;;;;;;7.70;6.90;;;;;;;;;;5083700;28;20957;-61
2023/06/21 09:36:37;;;;;;;7.70;6.80;;;;;;;;;;5088903;28;20052;-62
2023/06/21 09:39:08;;;;;;;7.20;6.35;;;;;;;;;;5085331;28;20404;-62
2023/06/21 09:41:35;;;;;;;7.43;6.53;;;;;;;;;;5084652;28;20408;-62
2023/06/21 09:44:03;;;;;;;6.85;6.18;;;;;;;;;;5086470;28;20048;-62
2023/06/21 09:46:30;;;;;;;6.25;5.45;;;;;;;;;;5086522;28;20514;-62
2023/06/21 09:49:06;;;;;;;6.78;6.18;;;;;;;;;;5084995;28;20744;-62
2023/06/21 09:51:33;;;;;;;5.63;5.10;;;;;;;;;;5084157;28;20500;-62
2023/06/21 09:54:03;;;;;;;5.90;5.40;;;;;;;;;;5088847;28;20055;-62
2023/06/21 09:56:33;;;;;;;6.20;5.60;;;;;;;;;;5088942;28;20044;-63
2023/06/21 09:59:01;;;;;;;6.95;5.97;;;;;;;;;;5087549;28;20511;-62
2023/06/21 10:01:37;;;;;;;5.55;5.05;;;;;;;;;;5086222;28;20051;-62
2023/06/21 10:04:09;;;;;;;6.22;4.82;;;;;;;;;;5088107;28;20059;-63
2023/06/21 10:06:36;;;;;;;6.55;5.28;;;;;;;;;;5084854;28;20070;-62
2023/06/21 10:09:08;;;;;;;8.18;5.35;;;;;;;;;;5083302;28;20056;-62
2023/06/21 10:11:35;;;;;;;6.20;5.63;;;;;;;;;;5087023;28;20397;-62
2023/06/21 10:14:02;;;;;;;6.05;5.00;;;;;;;;;;5084344;28;20043;-63
2023/06/21 10:16:28;;;;;;;7.13;4.95;;;;;;;;;;5085383;28;20538;-63
2023/06/21 10:18:59;;;;;;;5.70;4.70;;;;;;;;;;5077827;28;20051;-62
2023/06/21 10:21:27;;;;;;;5.10;4.60;;;;;;;;;;5082132;28;20059;-63
2023/06/21 10:23:55;;;;;;;5.55;4.80;;;;;;;;;;5083669;28;20052;-62
2023/06/21 10:26:24;;;;;;;6.28;5.05;;;;;;;;;;5086931;28;20048;-62
2023/06/21 10:28:54;;;;;;;5.50;5.00;;;;;;;;;;5086419;28;20063;-62
2023/06/21 10:31:22;;;;;;;4.82;4.10;;;;;;;;;;5085280;28;20071;-63
2023/06/21 10:33:49;;;;;;;4.60;4.13;;;;;;;;;;5088807;28;20052;-62
2023/06/21 10:36:22;;;;;;;4.55;3.65;;;;;;;;;;5087192;28;20048;-61
2023/06/21 10:38:52;;;;;;;4.80;4.20;;;;;;;;;;5084107;28;20058;-61
2023/06/21 10:41:19;;;;;;;4.53;3.85;;;;;;;;;;5088962;28;20052;-62
2023/06/21 10:43:47;;;;;;;4.70;4.07;;;;;;;;;;5088617;28;20059;-61
2023/06/21 10:46:14;;;;;;;7.00;4.05;;;;;;;;;;5084019;28;20055;-61
2023/06/21 10:48:41;;;;;;;4.72;3.83;;;;;;;;;;5084866;28;20059;-61
2023/06/21 10:51:08;;;;;;;5.68;4.38;;;;;;;;;;5087780;28;20055;-63
2023/06/21 10:53:37;;;;;;;4.40;4.00;;;;;;;;;;5083664;28;20052;-63
2023/06/21 10:56:04;;;;;;;;;;;;;;;;;;5084126;28;20051;-63
2023/06/21 10:58:30;;;;;;;5.53;3.63;;;;;;;;;;5083718;28;19924;-61
2023/06/21 11:00:59;;;;;;;5.10;3.03;;;;;;;;;;5085442;28;20458;-62
2023/06/21 11:03:26;;;;;;;3.60;3.30;;;;;;;;;;5085253;28;20071;-62
2023/06/21 11:05:54;;;;;;;3.30;3.00;;;;;;;;;;5084515;28;20052;-62
2023/06/21 11:08:30;;;;;;;3.58;2.80;;;;;;;;;;5087585;28;20048;-63
2023/06/21 11:10:58;;;;;;;4.13;3.33;;;;;;;;;;5084695;28;20047;-62
2023/06/21 11:13:34;;;;;;;4.13;3.47;;;;;;;;;;5084624;28;20052;-62
2023/06/21 11:16:09;;;;;;;3.90;3.42;;;;;;;;;;5076882;28;20075;-62
2023/06/21 11:18:36;;;;;;;4.90;3.78;;;;;;;;;;5069911;28;20048;-62
2023/06/21 11:21:05;;;;;;;4.60;3.65;;;;;;;;;;5071335;28;20048;-62
2023/06/21 11:23:32;;;;;;;4.05;3.55;;;;;;;;;;5067961;28;20052;-63
2023/06/21 11:26:14;;;;;;;4.13;3.23;;;;;;;;;;5066258;28;20052;-62
2023/06/21 11:28:45;;;;;;;3.58;3.28;;;;;;;;;;5065853;28;20682;-62
2023/06/21 11:31:14;;;;;;;4.25;3.28;;;;;;;;;;5068963;28;20428;-62
2023/06/21 11:33:44;;;;;;;4.43;3.47;;;;;;;;;;5065227;28;20060;-62
2023/06/21 11:36:11;;;;;;;3.88;3.58;;;;;;;;;;5063634;28;20426;-62
2023/06/21 11:38:38;;;;;;;4.55;3.30;;;;;;;;;;5065031;28;20083;-62
2023/06/21 11:41:29;;;;;;;3.67;3.38;;;;;;;;;;5059571;28;20053;-62
2023/06/21 11:43:57;;;;;;;4.38;3.20;;;;;;;;;;5067247;28;20056;-62
2023/06/21 11:46:25;;;;;;;4.47;3.60;;;;;;;;;;5067657;28;20488;-62
2023/06/21 11:48:58;;;;;;;4.43;3.30;;;;;;;;;;5072559;28;20060;-62
2023/06/21 11:51:25;;;;;;;3.78;3.25;;;;;;;;;;5062768;28;20052;-63
2023/06/21 11:53:52;;;;;;;5.20;3.53;;;;;;;;;;5061227;28;20056;-63
2023/06/21 11:56:20;;;;;;;3.80;3.50;;;;;;;;;;5066029;28;20079;-63
2023/06/21 11:58:47;;;;;;;4.68;4.28;;;;;;;;;;5061997;28;20413;-63
2023/06/21 12:01:15;;;;;;;4.25;3.67;;;;;;;;;;5064318;28;20056;-63
2023/06/21 12:03:42;;;;;;;4.15;3.75;;;;;;;;;;5069022;28;20056;-63
2023/06/21 12:06:09;;;;;;;4.28;3.88;;;;;;;;;;5068756;28;20446;-63
2023/06/21 12:08:37;;;;;;;4.72;3.83;;;;;;;;;;5060977;28;20056;-63
2023/06/21 12:11:04;;;;;;;3.53;3.22;;;;;;;;;;5065389;28;20059;-63
2023/06/21 12:13:32;;;;;;;4.07;3.53;;;;;;;;;;5066188;28;20055;-62
2023/06/21 12:15:59;;;;;;;4.45;3.78;;;;;;;;;;5067355;28;20062;-63
2023/06/21 12:18:28;;;;;;;4.05;3.65;;;;;;;;;;5069635;28;20051;-63
2023/06/21 12:20:55;;;;;;;4.45;3.72;;;;;;;;;;5065716;28;20422;-63
2023/06/21 12:23:22;;;;;;;3.70;3.25;;;;;;;;;;5066852;28;20507;-62
2023/06/21 12:25:50;;;;;;;4.25;3.85;;;;;;;;;;5067173;28;20056;-63
2023/06/21 12:28:17;;;;;;;;;;;;;;;;;;5064215;28;20052;-62
2023/06/21 12:30:50;;;;;;;4.05;3.53;;;;;;;;;;5067045;28;19932;-62
2023/06/21 12:33:18;;;;;;;4.75;3.42;;;;;;;;;;5063307;28;20055;-62
2023/06/21 12:35:46;;;;;;;4.07;3.35;;;;;;;;;;5067386;28;20056;-63
2023/06/21 12:38:14;;;;;;;3.58;2.90;;;;;;;;;;5066726;28;20064;-63
2023/06/21 12:40:52;;;;;;;4.25;3.10;;;;;;;;;;5064264;28;20703;-64
2023/06/21 12:43:30;;;;;;;3.20;2.90;;;;;;;;;;5061196;28;20052;-63
2023/06/21 12:45:57;;;;;;;3.78;3.03;;;;;;;;;;5064446;28;20095;-63
2023/06/21 12:48:24;;;;;;;3.10;2.80;;;;;;;;;;5066363;28;20048;-63
2023/06/21 12:50:54;;;;;;;3.83;3.10;;;;;;;;;;5068603;28;20493;-63
2023/06/21 12:53:23;;;;;;;3.90;3.28;;;;;;;;;;5065295;28;20495;-63
2023/06/21 12:55:50;;;;;;;3.80;2.95;;;;;;;;;;5073085;28;20071;-63
2023/06/21 12:58:17;;;;;;;3.90;3.17;;;;;;;;;;5068591;28;20421;-63
2023/06/21 13:00:44;;;;;;;3.43;2.93;;;;;;;;;;5066374;28;20060;-63
2023/06/21 13:03:10;;;;;;;3.72;3.05;;;;;;;;;;5059735;28;20061;-63
2023/06/21 13:05:37;;;;;;;3.85;3.30;;;;;;;;;;5068228;28;20053;-63
2023/06/21 13:08:05;;;;;;;3.85;3.40;;;;;;;;;;5066599;28;20047;-63
2023/06/21 13:10:32;;;;;;;5.30;3.42;;;;;;;;;;5063379;28;20116;-63
2023/06/21 13:12:59;;;;;;;3.53;3.22;;;;;;;;;;5066575;28;20055;-63
2023/06/21 13:15:26;;;;;;;4.00;2.92;;;;;;;;;;5077911;28;20397;-62
2023/06/21 13:17:56;;;;;;;4.32;3.80;;;;;;;;;;5082532;28;20047;-62
2023/06/21 13:20:23;;;;;;;3.88;3.25;;;;;;;;;;5084805;28;20047;-62
2023/06/21 13:22:50;;;;;;;4.50;3.20;;;;;;;;;;5086487;28;20079;-62
2023/06/21 13:25:19;;;;;;;3.80;3.50;;;;;;;;;;5086975;28;20059;-62
2023/06/21 13:27:46;;;;;;;3.80;3.50;;;;;;;;;;5085942;28;20409;-62
2023/06/21 13:30:13;;;;;;;4.18;3.28;;;;;;;;;;5082326;28;20052;-62
2023/06/21 13:32:40;;;;;;;3.78;3.33;;;;;;;;;;5086208;28;20056;-62
2023/06/21 13:35:07;;;;;;;3.95;3.22;;;;;;;;;;5086447;28;20055;-62
2023/06/21 13:37:34;;;;;;;4.37;3.23;;;;;;;;;;5095135;28;20040;-62
2023/06/21 13:40:01;;;;;;;4.13;3.17;;;;;;;;;;5084232;28;20494;-63
2023/06/21 13:42:30;;;;;;;4.15;3.15;;;;;;;;;;5088523;28;20048;-62
2023/06/21 13:44:57;;;;;;;3.55;3.22;;;;;;;;;;5085184;28;20504;-62
2023/06/21 13:47:23;;;;;;;3.47;3.10;;;;;;;;;;5086914;28;20040;-62
2023/06/21 13:49:50;;;;;;;3.10;2.83;;;;;;;;;;5085779;28;20506;-62
2023/06/21 13:52:19;;;;;;;4.03;2.92;;;;;;;;;;5084967;28;20060;-62
2023/06/21 13:54:45;;;;;;;3.28;2.95;;;;;;;;;;5085351;28;20424;-63
2023/06/21 13:57:14;;;;;;;3.28;2.75;;;;;;;;;;5084018;28;20135;-63
2023/06/21 13:59:43;;;;;;;3.90;3.30;;;;;;;;;;5087359;28;20052;-63
2023/06/21 14:02:09;;;;;;;3.83;3.40;;;;;;;;;;5090485;28;20071;-63
2023/06/21 14:04:36;;;;;;;3.75;3.22;;;;;;;;;;5089605;28;20060;-62
2023/06/21 14:07:03;;;;;;;4.60;3.08;;;;;;;;;;5090516;28;20602;-63
2023/06/21 14:09:30;;;;;;;3.42;3.13;;;;;;;;;;5084666;28;20477;-63
2023/06/21 14:11:57;;;;;;;3.45;3.08;;;;;;;;;;5090389;28;20052;-63
2023/06/21 14:14:24;;;;;;;3.20;2.90;;;;;;;;;;5089165;28;20055;-62
2023/06/21 14:16:52;;;;;;;4.05;3.10;;;;;;;;;;5087757;28;20507;-62
2023/06/21 14:19:19;;;;;;;3.40;3.10;;;;;;;;;;5092252;28;20044;-62
2023/06/21 14:21:46;;;;;;;2.97;2.67;;;;;;;;;;5087060;28;20059;-63
2023/06/21 14:24:13;;;;;;;2.72;2.50;;;;;;;;;;5088878;28;20060;-62
2023/06/21 14:26:40;;;;;;;4.70;3.08;;;;;;;;;;5092851;28;20063;-63
2023/06/21 14:29:07;;;;;;;3.15;2.80;;;;;;;;;;5092437;28;20052;-62
2023/06/21 14:31:34;;;;;;;3.08;2.63;;;;;;;;;;5092373;28;20059;-62
2023/06/21 14:34:02;;;;;;;4.07;3.03;;;;;;;;;;5091992;28;20052;-62
2023/06/21 14:36:29;;;;;;;3.97;2.83;;;;;;;;;;5092391;28;20047;-62
2023/06/21 14:38:56;;;;;;;2.70;2.38;;;;;;;;;;5089989;28;20052;-62
2023/06/21 14:41:24;;;;;;;3.25;2.70;;;;;;;;;;5090339;28;20052;-62
2023/06/21 14:43:51;;;;;;;;;;;;;;;;;;5094743;28;20056;-63
2023/06/21 14:46:18;;;;;;;4.20;2.75;;;;;;;;;;5094360;28;20391;-62
2023/06/21 14:48:44;;;;;;;2.80;2.60;;;;;;;;;;5091206;28;20048;-62
2023/06/21 14:51:14;;;;;;;4.72;2.80;;;;;;;;;;5098161;28;20056;-62
2023/06/21 14:53:41;;;;;;;3.20;2.75;;;;;;;;;;5090536;28;20055;-62
2023/06/21 14:56:08;;;;;;;3.97;2.72;;;;;;;;;;5097005;28;20048;-62
2023/06/21 14:58:35;;;;;;;3.60;3.05;;;;;;;;;;5088481;28;20052;-62
2023/06/21 15:01:03;;;;;;;4.18;3.30;;;;;;;;;;5083588;28;20052;-62
2023/06/21 15:03:30;;;;;;;3.15;2.88;;;;;;;;;;5090892;28;20052;-62
2023/06/21 15:05:57;;;;;;;3.88;2.95;;;;;;;;;;5080090;28;20044;-62
2023/06/21 15:08:25;;;;;;;4.40;3.00;;;;;;;;;;5089273;28;20048;-62
2023/06/21 15:10:54;;;;;;;;;;;;;;;;;;5093676;28;20052;-62